Time;durP1;ratioP1;P1;durP2;ratioP2;P2;SDS_P1;SDS_P2;PMS_P1;PMS_P2;Temp;Humidity;BMP_temperature;BMP_pressure;BME280_temperature;BME280_humidity;BME280_pressure;Samples;Min_cycle;Max_cycle;Signal;HPM_P1;HPM_P2
2023/06/16 00:01:57;;;;;;;;;;;;;;;21.73;53.28;100840.63;5045198;28;3847;-76
2023/06/16 00:04:25;;;;;;;;;;;;;;;21.72;53.42;100839.00;5048832;28;3969;-74
2023/06/16 00:06:53;;;;;;;;;;;;;;;21.73;53.33;100845.28;5045205;28;3731;-75
2023/06/16 00:09:21;;;;;;;;;;;;;;;21.71;53.41;100842.84;5048631;28;4053;-75
2023/06/16 00:11:48;;;;;;;;;;;;;;;21.70;53.44;100841.19;5046264;28;4011;-75
2023/06/16 00:14:16;;;;;;;;;;;;;;;21.69;53.39;100838.75;5029424;28;4179;-75
2023/06/16 00:16:43;;;;;;;;;;;;;;;21.67;53.25;100841.78;5049381;28;3902;-74
2023/06/16 00:19:10;;;;;;;;;;;;;;;21.67;53.16;100843.72;5048283;28;3924;-75
2023/06/16 00:21:38;;;;;;;;;;;;;;;21.67;53.37;100838.22;5047019;28;3859;-74
2023/06/16 00:24:05;;;;;;;;;;;;;;;21.65;53.32;100837.69;5047252;28;4123;-74
2023/06/16 00:26:32;;;;;;;;;;;;;;;21.64;53.26;100827.84;5044709;28;3928;-74
2023/06/16 00:28:58;;;;;;;;;;;;;;;21.64;53.09;100828.66;5044312;28;3934;-76
2023/06/16 00:31:25;;;;;;;;;;;;;;;21.62;53.27;100825.41;5046066;28;3846;-76
2023/06/16 00:33:52;;;;;;;;;;;;;;;21.61;53.13;100826.47;5047928;28;3881;-75
2023/06/16 00:36:18;;;;;;;;;;;;;;;21.60;53.16;100824.84;5045443;28;3581;-75
2023/06/16 00:38:45;;;;;;;;;;;;;;;21.60;53.24;100815.81;5047420;28;3863;-74
2023/06/16 00:41:13;;;;;;;;;;;;;;;21.58;53.28;100813.34;5031836;28;3919;-75
2023/06/16 00:43:39;;;;;;;;;;;;;;;21.58;53.25;100815.28;5046553;28;3928;-75
2023/06/16 00:46:06;;;;;;;;;;;;;;;21.57;53.34;100810.91;5045043;28;3813;-74
2023/06/16 00:48:33;;;;;;;;;;;;;;;21.55;53.18;100806.53;5030127;28;3616;-75
2023/06/16 00:50:59;;;;;;;;;;;;;;;21.54;53.28;100807.63;5028749;28;3758;-76
2023/06/16 00:53:26;;;;;;;;;;;;;;;21.54;53.31;100802.16;5044679;28;3920;-74
2023/06/16 00:55:52;;;;;;;;;;;;;;;21.53;53.20;100811.50;5027030;28;3965;-75
2023/06/16 00:58:20;;;;;;;;;;;;;;;21.52;53.09;100809.03;5047527;28;4067;-75
2023/06/16 01:00:47;;;;;;;;;;;;;;;21.51;53.11;100801.91;5042680;28;3896;-74
2023/06/16 01:03:16;;;;;;;;;;;;;;;21.49;53.32;100796.72;5047196;28;3961;-73
2023/06/16 01:05:43;;;;;;;;;;;;;;;21.48;53.10;100797.81;5027624;28;4216;-76
2023/06/16 01:08:11;;;;;;;;;;;;;;;21.49;53.15;100809.59;5043815;28;3863;-75
2023/06/16 01:10:37;;;;;;;;;;;;;;;21.47;53.19;100804.44;5046896;28;3835;-74
2023/06/16 01:13:06;;;;;;;;;;;;;;;21.46;53.04;100794.53;5031203;28;3990;-75
2023/06/16 01:15:32;;;;;;;;;;;;;;;21.45;53.08;100803.06;5043366;28;4024;-72
2023/06/16 01:17:59;;;;;;;;;;;;;;;21.44;53.00;100793.19;5045172;28;3924;-74
2023/06/16 01:20:26;;;;;;;;;;;;;;;21.43;52.99;100802.53;5047993;28;3810;-75
2023/06/16 01:22:53;;;;;;;;;;;;;;;21.42;52.88;100796.25;5043514;28;3881;-74
2023/06/16 01:25:22;;;;;;;;;;;;;;;21.40;53.10;100797.63;5029987;28;3940;-75
2023/06/16 01:27:52;;;;;;;;;;;;;;;21.40;53.00;100798.44;5045143;28;4005;-74
2023/06/16 01:30:19;;;;;;;;;;;;;;;21.39;53.08;100802.28;5045807;28;3891;-74
2023/06/16 01:32:45;;;;;;;;;;;;;;;21.38;53.05;100794.34;5045679;28;3940;-74
2023/06/16 01:35:12;;;;;;;;;;;;;;;21.38;52.93;100799.81;5048285;28;3925;-74
2023/06/16 01:37:38;;;;;;;;;;;;;;;21.36;52.93;100796.53;5029675;28;3877;-75
2023/06/16 01:40:05;;;;;;;;;;;;;;;21.35;53.03;100803.09;5046740;28;3694;-74
2023/06/16 01:42:31;;;;;;;;;;;;;;;21.34;52.90;100799.56;5043598;28;3991;-74
2023/06/16 01:44:58;;;;;;;;;;;;;;;21.33;52.92;100798.75;5046148;28;3987;-73
2023/06/16 01:47:24;;;;;;;;;;;;;;;21.33;52.89;100798.75;5046161;28;3733;-74
2023/06/16 01:49:51;;;;;;;;;;;;;;;21.30;52.77;100798.50;5043982;28;3909;-74
2023/06/16 01:52:18;;;;;;;;;;;;;;;21.28;52.80;100798.78;5032011;28;3799;-73
2023/06/16 01:54:44;;;;;;;;;;;;;;;21.28;52.81;100798.78;5048728;28;3963;-75
2023/06/16 01:57:11;;;;;;;;;;;;;;;21.26;53.05;100790.00;5047926;28;3870;-76
2023/06/16 01:59:38;;;;;;;;;;;;;;;21.26;52.82;100798.22;5047570;28;3968;-75
2023/06/16 02:02:04;;;;;;;;;;;;;;;21.23;53.00;100795.25;5047752;28;4196;-75
2023/06/16 02:04:32;;;;;;;;;;;;;;;21.22;52.88;100794.44;5030037;28;4060;-75
2023/06/16 02:06:58;;;;;;;;;;;;;;;21.21;52.91;100792.81;5050239;28;4075;-73
2023/06/16 02:09:25;;;;;;;;;;;;;;;21.21;52.86;100792.00;5049546;28;3826;-76
2023/06/16 02:11:52;;;;;;;;;;;;;;;21.19;52.87;100791.47;5049826;28;4004;-75
2023/06/16 02:14:20;;;;;;;;;;;;;;;21.19;52.76;100796.94;5049748;28;3999;-76
2023/06/16 02:16:46;;;;;;;;;;;;;;;21.17;52.93;100799.94;5049882;28;3916;-74
2023/06/16 02:19:13;;;;;;;;;;;;;;;21.17;52.68;100801.88;5035097;28;3908;-73
2023/06/16 02:21:39;;;;;;;;;;;;;;;21.15;53.01;100799.44;5040034;28;3935;-74
2023/06/16 02:24:06;;;;;;;;;;;;;;;21.13;52.84;100793.41;5052973;28;3913;-73
2023/06/16 02:26:32;;;;;;;;;;;;;;;21.14;52.97;100799.69;5052194;28;4060;-73
2023/06/16 02:28:59;;;;;;;;;;;;;;;21.12;52.85;100801.91;5051844;28;4128;-74
2023/06/16 02:31:25;;;;;;;;;;;;;;;21.12;52.55;100804.63;5039653;28;3910;-74
2023/06/16 02:33:52;;;;;;;;;;;;;;;21.10;52.70;100800.25;5037544;28;3883;-74
2023/06/16 02:36:19;;;;;;;;;;;;;;;21.10;52.92;100804.94;5056017;28;3867;-74
2023/06/16 02:38:45;;;;;;;;;;;;;;;21.09;52.83;100808.78;5051887;28;3878;-74
2023/06/16 02:41:12;;;;;;;;;;;;;;;21.07;52.45;100800.03;5055551;28;4089;-74
2023/06/16 02:43:38;;;;;;;;;;;;;;;21.05;52.59;100805.75;5052458;28;5347;-75
2023/06/16 02:46:05;;;;;;;;;;;;;;;21.04;52.80;100804.13;5039376;28;3954;-75
2023/06/16 02:48:31;;;;;;;;;;;;;;;21.03;52.52;100807.16;5052721;28;3898;-75
2023/06/16 02:50:58;;;;;;;;;;;;;;;21.02;52.88;100805.53;5052461;28;3941;-75
2023/06/16 02:53:25;;;;;;;;;;;;;;;21.01;52.54;100803.91;5052784;28;4064;-74
2023/06/16 02:55:52;;;;;;;;;;;;;;;21.00;52.73;100805.81;5039276;28;3926;-75
2023/06/16 02:58:19;;;;;;;;;;;;;;;20.99;52.55;100811.56;5054569;28;3966;-75
2023/06/16 03:00:45;;;;;;;;;;;;;;;20.99;52.67;100806.09;5050519;28;3936;-74
2023/06/16 03:03:12;;;;;;;;;;;;;;;20.96;52.69;100802.00;5052212;28;3931;-75
2023/06/16 03:05:39;;;;;;;;;;;;;;;20.97;52.58;100806.38;5053985;28;3926;-75
2023/06/16 03:08:06;;;;;;;;;;;;;;;21.01;52.63;100807.44;5051041;28;3736;-75
2023/06/16 03:10:32;;;;;;;;;;;;;;;20.95;52.29;100805.84;5051245;28;4153;-74
2023/06/16 03:12:59;;;;;;;;;;;;;;;20.95;52.61;100803.09;5053318;28;4093;-75
2023/06/16 03:15:27;;;;;;;;;;;;;;;20.94;52.28;100800.63;5054029;28;3925;-74
2023/06/16 03:17:53;;;;;;;;;;;;;;;20.91;52.49;100795.72;5033527;28;3955;-75
2023/06/16 03:20:21;;;;;;;;;;;;;;;20.96;52.26;100795.72;5050689;28;4037;-75
2023/06/16 03:22:47;;;;;;;;;;;;;;;20.90;52.51;100794.09;5048015;28;3981;-75
2023/06/16 03:25:15;;;;;;;;;;;;;;;21.01;51.95;100796.50;5034147;28;3886;-75
2023/06/16 03:27:41;;;;;;;;;;;;;;;21.20;51.60;100801.28;5027843;28;4042;-75
2023/06/16 03:30:08;;;;;;;;;;;;;;;21.06;51.82;100801.94;5028680;28;3813;-76
2023/06/16 03:32:35;;;;;;;;;;;;;;;21.01;51.98;100801.97;5031655;28;3909;-75
2023/06/16 03:35:02;;;;;;;;;;;;;;;20.91;51.99;100802.03;5028073;28;3883;-75
2023/06/16 03:37:28;;;;;;;;;;;;;;;21.02;51.92;100811.00;5049050;28;4000;-75
2023/06/16 03:39:55;;;;;;;;;;;;;;;20.95;51.99;100803.09;5047445;28;3937;-76
2023/06/16 03:42:22;;;;;;;;;;;;;;;21.20;51.57;100806.78;5048157;28;4050;-75
2023/06/16 03:44:48;;;;;;;;;;;;;;;21.07;51.73;100805.50;5046877;28;4036;-75
2023/06/16 03:47:16;;;;;;;;;;;;;;;21.22;51.29;100807.31;5047780;28;3702;-76
2023/06/16 03:49:42;;;;;;;;;;;;;;;21.14;51.50;100805.19;5043792;28;3977;-74
2023/06/16 03:52:09;;;;;;;;;;;;;;;21.14;51.17;100805.97;5044922;28;3917;-75
2023/06/16 03:54:36;;;;;;;;;;;;;;;21.38;50.57;100814.34;5047146;28;4209;-75
2023/06/16 03:57:03;;;;;;;;;;;;;;;21.16;50.92;100811.19;5046976;28;3657;-74
2023/06/16 03:59:29;;;;;;;;;;;;;;;21.35;50.63;100808.59;5028148;28;3878;-75
2023/06/16 04:01:57;;;;;;;;;;;;;;;21.08;51.14;100807.94;5046589;28;3877;-74
2023/06/16 04:04:25;;;;;;;;;;;;;;;21.16;51.08;100797.50;5047312;28;3919;-73
2023/06/16 04:06:51;;;;;;;;;;;;;;;21.31;50.77;100806.41;5027471;28;3931;-75
2023/06/16 04:09:18;;;;;;;;;;;;;;;21.27;50.67;100807.28;5046375;28;4019;-74
2023/06/16 04:11:44;;;;;;;;;;;;;;;21.53;49.82;100810.66;5043404;28;4082;-75
2023/06/16 04:14:37;;;;;;;;;;;;;;;21.39;50.25;100817.91;5042134;28;3956;-76
2023/06/16 04:17:28;;;;;;;;;;;;;;;21.40;50.21;100806.66;5047883;28;3986;-74
2023/06/16 04:20:21;;;;;;;;;;;;;;;21.58;49.74;100804.31;5043049;28;3997;-74
2023/06/16 04:23:13;;;;;;;;;;;;;;;21.03;51.18;100809.88;5046652;28;3761;-76
2023/06/16 04:25:59;;;;;;;;;;;;;;;21.16;50.59;100808.47;5049573;28;3958;-75
2023/06/16 04:28:48;;;;;;;;;;;;;;;21.43;49.76;100803.34;5048927;28;3586;-75
2023/06/16 04:31:37;;;;;;;;;;;;;;;21.05;50.89;100808.50;5048487;28;3841;-76
2023/06/16 04:34:31;;;;;;;;;;;;;;;21.36;49.87;100805.59;5051776;28;3926;-76
2023/06/16 04:37:23;;;;;;;;;;;;;;;21.00;49.48;100733.78;5049950;28;4113;-75
2023/06/16 04:40:15;;;;;;;;;;;;;;;20.69;49.36;100675.72;5049592;28;3945;-74
2023/06/16 04:43:06;;;;;;;;;;;;;;;21.64;49.24;100801.25;5035159;28;3928;-75
2023/06/16 04:45:58;;;;;;;;;;;;;;;21.29;49.98;100799.59;5041618;28;3894;-74
2023/06/16 04:48:25;;;;;;;;;;;;;;;21.51;49.63;100797.25;5036953;28;4799;-76
2023/06/16 04:51:11;;;;;;;;;;;;;;;21.52;49.21;100801.63;5032554;28;4938;-74
2023/06/16 04:53:58;;;;;;;;;;;;;;;21.46;49.45;100800.03;5030988;28;5474;-76
2023/06/16 04:56:25;;;;;;;;;;;;;;;21.36;49.47;100804.75;5016253;28;4558;-74
2023/06/16 04:58:51;;;;;;;;;;;;;;;20.92;49.57;100726.22;5014825;28;4885;-74
2023/06/16 05:01:18;;;;;;;;;;;;;;;21.25;49.81;100796.59;5033573;28;4722;-74
2023/06/16 05:03:44;;;;;;;;;;;;;;;21.09;50.25;100793.16;5039856;28;5377;-74
2023/06/16 05:06:11;;;;;;;;;;;;;;;21.51;49.19;100802.72;5024524;28;4722;-74
2023/06/16 05:08:38;;;;;;;;;;;;;;;21.39;49.35;100794.06;5043210;28;5300;-74
2023/06/16 05:11:04;;;;;;;;;;;;;;;21.40;49.33;100795.69;5040572;28;4854;-75
2023/06/16 05:13:31;;;;;;;;;;;;;;;21.37;49.52;100793.53;5017062;28;5546;-76
2023/06/16 05:15:57;;;;;;;;;;;;;;;21.37;49.52;100796.28;5039016;28;4920;-75
2023/06/16 05:18:24;;;;;;;;;;;;;;;21.33;49.54;100798.75;5040053;28;5342;-75
2023/06/16 05:20:50;;;;;;;;;;;;;;;21.36;49.21;100791.06;5039310;28;4625;-75
2023/06/16 05:23:17;;;;;;;;;;;;;;;21.11;50.07;100795.59;5040795;28;5503;-75
2023/06/16 05:25:45;;;;;;;;;;;;;;;20.97;50.47;100789.13;5044825;28;5237;-75
2023/06/16 05:28:11;;;;;;;;;;;;;;;20.82;50.92;100796.34;5028295;28;4881;-75
2023/06/16 05:30:38;;;;;;;;;;;;;;;21.05;50.37;100788.53;5044713;28;4659;-74
2023/06/16 05:33:05;;;;;;;;;;;;;;;20.75;50.95;100790.34;5043851;28;4528;-75
2023/06/16 05:35:31;;;;;;;;;;;;;;;20.77;50.77;100790.09;5048791;28;4689;-74
2023/06/16 05:37:58;;;;;;;;;;;;;;;20.63;51.12;100789.88;5047202;28;4667;-76
2023/06/16 05:40:24;;;;;;;;;;;;;;;20.64;51.22;100786.03;5027525;28;4717;-74
2023/06/16 05:42:51;;;;;;;;;;;;;;;20.76;50.97;100788.41;5048259;28;4648;-75
2023/06/16 05:45:18;;;;;;;;;;;;;;;20.61;51.21;100792.06;5049936;28;4677;-75
2023/06/16 05:47:44;;;;;;;;;;;;;;;20.60;51.52;100790.44;5054090;28;4591;-74
2023/06/16 05:50:10;;;;;;;;;;;;;;;20.55;51.45;100791.25;5034875;28;4506;-74
2023/06/16 05:52:37;;;;;;;;;;;;;;;20.53;51.46;100788.00;5045882;28;4596;-75
2023/06/16 05:55:04;;;;;;;;;;;;;;;20.49;51.45;100794.28;5042487;28;4774;-75
2023/06/16 05:57:31;;;;;;;;;;;;;;;20.47;51.75;100793.72;5024464;28;4349;-75
2023/06/16 05:59:57;;;;;;;;;;;;;;;20.47;51.47;100791.00;5039316;28;5305;-74
2023/06/16 06:02:25;;;;;;;;;;;;;;;20.46;51.91;100792.09;5041830;28;4506;-77
2023/06/16 06:04:51;;;;;;;;;;;;;;;20.47;51.38;100793.72;5039389;28;4457;-77
2023/06/16 06:07:18;;;;;;;;;;;;;;;20.46;51.48;100792.91;5040565;28;4632;-75
2023/06/16 06:09:45;;;;;;;;;;;;;;;20.45;51.44;100799.50;5040599;28;4403;-75
2023/06/16 06:12:12;;;;;;;;;;;;;;;20.46;51.49;100792.09;5027151;28;4569;-76
2023/06/16 06:14:38;;;;;;;;;;;;;;;20.46;51.56;100794.84;5040790;28;4634;-76
2023/06/16 06:17:05;;;;;;;;;;;;;;;20.46;51.56;100789.38;5039580;28;4637;-75
2023/06/16 06:19:31;;;;;;;;;;;;;;;20.45;51.72;100793.22;5041750;28;4201;-75
2023/06/16 06:21:58;;;;;;;;;;;;;;;20.47;51.33;100793.72;5049420;28;4548;-76
2023/06/16 06:24:24;;;;;;;;;;;;;;;20.45;51.60;100785.81;5030027;28;4705;-76
2023/06/16 06:26:51;;;;;;;;;;;;;;;20.46;51.71;100792.09;5037694;28;4655;-74
2023/06/16 06:29:18;;;;;;;;;;;;;;;20.45;51.55;100787.75;5041768;28;4460;-77
2023/06/16 06:31:44;;;;;;;;;;;;;;;20.45;51.68;100794.03;5023070;28;5418;-75
2023/06/16 06:34:11;;;;;;;;;;;;;;;20.46;51.69;100797.56;5039749;28;4809;-77
2023/06/16 06:36:39;;;;;;;;;;;;;;;20.45;51.34;100788.56;5041543;28;5453;-77
2023/06/16 06:39:05;;;;;;;;;;;;;;;20.46;51.43;100789.38;5035179;28;4794;-77
2023/06/16 06:41:32;;;;;;;;;;;;;;;20.46;51.41;100786.63;5038942;28;5477;-76
2023/06/16 06:43:59;;;;;;;;;;;;;;;20.45;51.39;100791.28;5037860;28;5599;-76
2023/06/16 06:46:25;;;;;;;;;;;;;;;20.45;51.47;100791.28;5039972;28;4909;-75
2023/06/16 06:48:52;;;;;;;;;;;;;;;20.45;51.61;100794.03;5040680;28;5178;-75
2023/06/16 06:51:18;;;;;;;;;;;;;;;20.46;51.31;100789.38;5041419;28;4653;-76
2023/06/16 06:53:45;;;;;;;;;;;;;;;20.46;51.46;100798.38;5041164;28;5734;-75
2023/06/16 06:56:11;;;;;;;;;;;;;;;20.47;51.25;100791.00;5050049;28;5502;-78
2023/06/16 06:58:38;;;;;;;;;;;;;;;20.48;51.22;100807.13;5048656;28;4602;-78
2023/06/16 07:01:05;;;;;;;;;;;;;;;20.49;51.14;100807.94;5048675;28;4961;-76
2023/06/16 07:03:31;;;;;;;;;;;;;;;20.48;51.26;100804.41;5048562;28;4776;-77
2023/06/16 07:05:58;;;;;;;;;;;;;;;20.49;51.04;100791.53;5048569;28;5406;-76
2023/06/16 07:08:25;;;;;;;;;;;;;;;20.49;51.39;100800.56;5024445;28;4584;-77
2023/06/16 07:10:51;;;;;;;;;;;;;;;20.52;51.02;100799.19;5035972;28;4943;-77
2023/06/16 07:13:18;;;;;;;;;;;;;;;20.52;51.23;100810.13;5043279;28;4902;-77
2023/06/16 07:15:45;;;;;;;;;;;;;;;20.51;50.90;100809.31;5038183;28;5725;-77
2023/06/16 07:18:11;;;;;;;;;;;;;;;20.52;51.17;100799.19;5038507;28;4588;-76
2023/06/16 07:20:38;;;;;;;;;;;;;;;20.53;51.00;100809.91;5040786;28;5320;-77
2023/06/16 07:23:04;;;;;;;;;;;;;;;20.54;50.94;100799.75;5024041;28;4961;-77
2023/06/16 07:25:32;;;;;;;;;;;;;;;20.55;51.22;100806.88;5047218;28;5460;-76
2023/06/16 07:27:58;;;;;;;;;;;;;;;20.54;51.04;100803.31;5044998;28;5416;-76
2023/06/16 07:30:25;;;;;;;;;;;;;;;20.55;50.97;100806.88;5044454;28;5633;-76
2023/06/16 07:32:51;;;;;;;;;;;;;;;20.55;50.95;100804.13;5027413;28;5422;-77
2023/06/16 07:35:19;;;;;;;;;;;;;;;20.55;51.10;100799.47;5041431;28;4717;-76
2023/06/16 07:37:46;;;;;;;;;;;;;;;20.56;50.76;100798.38;5024019;28;4756;-77
2023/06/16 07:40:13;;;;;;;;;;;;;;;20.57;50.97;100801.94;5038057;28;5218;-77
2023/06/16 07:42:40;;;;;;;;;;;;;;;20.58;50.71;100800.81;5042402;28;5544;-76
2023/06/16 07:45:06;;;;;;;;;;;;;;;20.58;50.88;100800.81;5041665;28;4779;-76
2023/06/16 07:47:33;;;;;;;;;;;;;;;20.58;50.64;100800.81;5039591;28;5362;-76
2023/06/16 07:49:59;;;;;;;;;;;;;;;20.59;50.88;100800.56;5032236;28;5222;-78
2023/06/16 07:52:26;;;;;;;;;;;;;;;20.61;50.54;100798.34;5036332;28;4850;-78
2023/06/16 07:54:53;;;;;;;;;;;;;;;20.60;50.92;100798.63;5035997;28;4787;-78
2023/06/16 07:57:19;;;;;;;;;;;;;;;20.60;50.68;100790.44;5027610;28;5456;-76
2023/06/16 07:59:45;;;;;;;;;;;;;;;20.63;50.83;100795.34;5044283;28;5387;-76
2023/06/16 08:02:12;;;;;;;;;;;;;;;20.63;50.94;100795.34;5021285;28;4838;-76
2023/06/16 08:04:39;;;;;;;;;;;;;;;20.63;50.70;100796.16;5036369;28;4601;-77
2023/06/16 08:07:05;;;;;;;;;;;;;;;20.63;50.57;100795.34;5035843;28;4609;-76
2023/06/16 08:09:32;;;;;;;;;;;;;;;20.64;50.60;100792.31;5032054;28;4674;-75
2023/06/16 08:11:58;;;;;;;;;;;;;;;20.64;50.88;100792.31;5019288;28;5479;-76
2023/06/16 08:14:26;;;;;;;;;;;;;;;20.66;50.64;100796.69;5035827;28;5391;-76
2023/06/16 08:16:52;;;;;;;;;;;;;;;20.64;50.83;100794.22;5042259;28;4764;-76
2023/06/16 08:19:20;;;;;;;;;;;;;;;20.65;50.86;100793.16;5035911;28;4953;-76
2023/06/16 08:21:47;;;;;;;;;;;;;;;20.66;50.68;100793.97;5034787;28;5381;-75
2023/06/16 08:24:13;;;;;;;;;;;;;;;20.65;50.69;100787.69;5038097;28;5440;-77
2023/06/16 08:26:40;;;;;;;;;;;;;;;20.66;50.86;100793.97;5019948;28;4898;-76
2023/06/16 08:29:10;;;;;;;;;;;;;;;20.66;50.69;100788.50;5039930;28;4653;-76
2023/06/16 08:31:36;;;;;;;;;;;;;;;20.64;50.88;100788.75;5040461;28;4866;-75
2023/06/16 08:34:03;;;;;;;;;;;;;;;20.65;50.93;100787.69;5029586;28;5196;-76
2023/06/16 08:36:29;;;;;;;;;;;;;;;20.65;50.63;100790.41;5044623;28;5257;-75
2023/06/16 08:39:07;;;;;;;;;;;;;;;20.67;50.92;100784.66;5034132;28;5241;-76
2023/06/16 08:41:33;;;;;;;;;;;;;;;20.67;50.92;100785.47;5019680;28;4794;-75
2023/06/16 08:44:00;;;;;;;;;;;;;;;20.82;50.83;100781.81;5030328;28;5236;-76
2023/06/16 08:46:26;;;;;;;;;;;;;;;20.83;50.53;100784.28;5047004;28;4853;-77
2023/06/16 08:48:53;;;;;;;;;;;;;;;20.74;50.82;100785.97;5045303;28;5515;-75
2023/06/16 08:51:21;;;;;;;;;;;;;;;20.70;50.90;100784.88;5036893;28;5617;-76
2023/06/16 08:53:47;;;;;;;;;;;;;;;20.71;51.02;100780.25;5048883;28;4646;-75
2023/06/16 08:56:17;;;;;;;;;;;;;;;20.71;50.97;100777.53;5046481;28;4993;-75
2023/06/16 08:58:44;;;;;;;;;;;;;;;20.72;51.40;100770.94;5044444;28;5753;-75
2023/06/16 09:01:10;;;;;;;;;;;;;;;20.71;51.25;100769.31;5020499;28;4765;-75
2023/06/16 09:03:37;;;;;;;;;;;;;;;20.72;51.10;100773.69;5040053;28;4886;-75
2023/06/16 09:06:04;;;;;;;;;;;;;;;20.73;51.10;100767.09;5013004;28;5153;-77
2023/06/16 09:08:31;;;;;;;;;;;;;;;20.73;51.33;100764.34;5014794;28;4702;-76
2023/06/16 09:10:57;;;;;;;;;;;;;;;20.73;51.17;100767.91;5033657;28;4763;-77
2023/06/16 09:13:24;;;;;;;;;;;;;;;20.74;51.33;100777.78;5017372;28;4889;-76
2023/06/16 09:15:51;;;;;;;;;;;;;;;20.74;51.27;100775.03;5016421;28;4746;-76
2023/06/16 09:18:18;;;;;;;;;;;;;;;20.74;51.30;100763.28;5034084;28;4958;-76
2023/06/16 09:20:51;;;;;;;;;;;;;;;20.77;51.30;100762.72;5035994;28;5151;-76
2023/06/16 09:23:17;;;;;;;;;;;;;;;20.77;51.36;100760.78;5033024;28;4780;-76
2023/06/16 09:25:44;;;;;;;;;;;;;;;20.78;51.37;100765.16;5024784;28;5247;-74
2023/06/16 09:28:10;;;;;;;;;;;;;;;20.78;51.60;100758.88;5025359;28;5076;-77
2023/06/16 09:30:37;;;;;;;;;;;;;;;20.79;51.53;100753.09;5045508;28;4762;-75
2023/06/16 09:33:03;;;;;;;;;;;;;;;20.80;51.28;100753.94;5042367;28;5494;-75
2023/06/16 09:35:30;;;;;;;;;;;;;;;20.81;51.40;100752.81;5042694;28;4622;-75
2023/06/16 09:37:57;;;;;;;;;;;;;;;20.82;51.27;100754.44;5046579;28;5233;-75
2023/06/16 09:40:23;;;;;;;;;;;;;;;20.83;51.34;100756.09;5043470;28;5604;-76
2023/06/16 09:42:50;;;;;;;;;;;;;;;20.83;51.46;100751.44;5045025;28;4731;-77
2023/06/16 09:45:17;;;;;;;;;;;;;;;20.83;51.52;100748.69;5044921;28;5310;-76
2023/06/16 09:47:44;;;;;;;;;;;;;;;20.84;51.41;100753.06;5047535;28;5319;-76
2023/06/16 09:50:11;;;;;;;;;;;;;;;20.85;51.44;100749.25;5029056;28;5257;-76
2023/06/16 09:52:37;;;;;;;;;;;;;;;20.86;51.51;100747.31;5043312;28;4628;-75
2023/06/16 09:55:04;;;;;;;;;;;;;;;20.86;51.65;100750.88;5044436;28;4814;-75
2023/06/16 09:57:30;;;;;;;;;;;;;;;20.87;51.51;100743.47;5043525;28;4781;-75
2023/06/16 09:59:57;;;;;;;;;;;;;;;20.88;51.38;100742.38;5046019;28;5424;-73
2023/06/16 10:02:24;;;;;;;;;;;;;;;20.90;51.20;100747.56;5044304;28;5098;-75
2023/06/16 10:04:53;;;;;;;;;;;;;;;20.90;51.45;100740.16;5027920;28;4771;-75
2023/06/16 10:07:20;;;;;;;;;;;;;;;20.90;51.32;100744.84;5042753;28;4909;-76
2023/06/16 10:09:47;;;;;;;;;;;;;;;20.91;51.43;100735.50;5042951;28;5413;-76
2023/06/16 10:12:13;;;;;;;;;;;;;;;20.92;51.42;100737.97;5057990;28;4898;-77
2023/06/16 10:14:40;;;;;;;;;;;;;;;20.93;51.66;100730.56;5063863;28;4767;-75
2023/06/16 10:17:07;;;;;;;;;;;;;;;20.93;51.44;100733.31;5047990;28;5354;-76
2023/06/16 10:19:33;;;;;;;;;;;;;;;20.94;51.45;100733.03;5046926;28;5559;-76
2023/06/16 10:22:00;;;;;;;;;;;;;;;20.93;51.53;100728.66;5052307;28;4765;-77
2023/06/16 10:24:27;;;;;;;;;;;;;;;20.96;51.62;100728.06;5046945;28;4777;-76
2023/06/16 10:26:53;;;;;;;;;;;;;;;20.96;51.58;100719.88;5046861;28;5061;-77
2023/06/16 10:29:20;;;;;;;;;;;;;;;20.97;51.43;100717.94;5044998;28;4928;-75
2023/06/16 10:31:49;;;;;;;;;;;;;;;20.99;51.56;100718.47;5048468;28;4877;-76
2023/06/16 10:34:15;;;;;;;;;;;;;;;21.00;51.54;100720.09;5035421;28;4658;-76
2023/06/16 10:36:42;;;;;;;;;;;;;;;21.01;51.67;100710.81;5032815;28;4787;-76
2023/06/16 10:39:08;;;;;;;;;;;;;;;21.02;51.73;100713.25;5031779;28;4521;-77
2023/06/16 10:41:35;;;;;;;;;;;;;;;21.04;51.67;100712.97;5048402;28;5459;-76
2023/06/16 10:44:01;;;;;;;;;;;;;;;21.04;51.52;100705.56;5032583;28;5479;-75
2023/06/16 10:46:28;;;;;;;;;;;;;;;21.04;51.68;100700.09;5047575;28;5307;-76
2023/06/16 10:48:54;;;;;;;;;;;;;;;21.06;51.45;100702.53;5046222;28;4823;-76
2023/06/16 10:51:22;;;;;;;;;;;;;;;21.08;51.76;100692.13;5027239;28;5450;-75
2023/06/16 10:53:49;;;;;;;;;;;;;;;21.08;51.82;100690.19;5048761;28;5108;-77
2023/06/16 10:56:15;;;;;;;;;;;;;;;21.09;51.60;100691.84;5031661;28;5016;-76
2023/06/16 10:58:42;;;;;;;;;;;;;;;21.10;51.82;100690.72;5030200;28;4734;-77
2023/06/16 11:01:08;;;;;;;;;;;;;;;21.11;51.74;100694.28;5048614;28;5334;-76
2023/06/16 11:03:35;;;;;;;;;;;;;;;21.14;51.90;100690.97;5044445;28;5082;-76
2023/06/16 11:06:01;;;;;;;;;;;;;;;21.13;51.80;100678.41;5046842;28;5085;-76
2023/06/16 11:08:28;;;;;;;;;;;;;;;21.15;51.93;100676.19;5047416;28;5253;-77
2023/06/16 11:10:57;;;;;;;;;;;;;;;21.17;51.70;100676.72;5027709;28;5403;-77
2023/06/16 11:13:23;;;;;;;;;;;;;;;21.19;51.76;100674.50;5046658;28;4654;-77
2023/06/16 11:15:50;;;;;;;;;;;;;;;21.20;51.84;100676.13;5043773;28;5231;-77
2023/06/16 11:18:17;;;;;;;;;;;;;;;21.19;51.85;100671.75;5048749;28;5652;-76
2023/06/16 11:20:43;;;;;;;;;;;;;;;21.21;51.70;100675.03;5049122;28;4798;-77
2023/06/16 11:23:10;;;;;;;;;;;;;;;21.23;51.86;100675.56;5049692;28;4664;-76
2023/06/16 11:25:37;;;;;;;;;;;;;;;21.25;52.02;100673.34;5051403;28;4712;-76
2023/06/16 11:28:04;;;;;;;;;;;;;;;21.26;51.86;100664.03;5050403;28;4916;-77
2023/06/16 11:30:31;;;;;;;;;;;;;;;21.27;51.99;100668.41;5049767;28;5269;-76
2023/06/16 11:32:58;;;;;;;;;;;;;;;21.30;52.07;100667.03;5049137;28;5094;-76
2023/06/16 11:35:24;;;;;;;;;;;;;;;21.30;51.90;100665.09;5046235;28;5247;-77
2023/06/16 11:37:54;;;;;;;;;;;;;;;21.33;52.15;100660.97;5027865;28;4720;-76
2023/06/16 11:40:21;;;;;;;;;;;;;;;21.34;52.10;100659.84;5045955;28;4785;-76
2023/06/16 11:42:47;;;;;;;;;;;;;;;21.35;52.11;100650.50;5038530;28;5173;-75
2023/06/16 11:45:14;;;;;;;;;;;;;;;21.35;52.17;100646.97;5024911;28;5469;-77
2023/06/16 11:47:40;;;;;;;;;;;;;;;21.48;52.13;100649.06;5018593;28;4415;-73
2023/06/16 11:50:07;;;;;;;;;;;;;;;21.58;51.43;100651.69;5033085;28;4881;-75
2023/06/16 11:52:34;;;;;;;;;;;;;;;21.50;51.02;100649.56;5035898;28;4780;-77
2023/06/16 11:55:00;;;;;;;;;;;;;;;21.46;50.90;100637.56;5033610;28;5423;-74
2023/06/16 11:57:27;;;;;;;;;;;;;;;21.47;50.98;100645.50;5042556;28;5412;-74
2023/06/16 11:59:53;;;;;;;;;;;;;;;21.47;50.85;100636.47;5030715;28;4746;-76
2023/06/16 12:02:20;;;;;;;;;;;;;;;21.48;51.04;100643.59;5044036;28;4906;-77
2023/06/16 12:04:46;;;;;;;;;;;;;;;21.47;50.98;100648.25;5045997;28;4882;-74
2023/06/16 12:07:13;;;;;;;;;;;;;;;21.49;51.20;100642.47;5042892;28;5077;-75
2023/06/16 12:09:39;;;;;;;;;;;;;;;21.50;51.23;100639.44;5032970;28;4733;-77
2023/06/16 12:12:07;;;;;;;;;;;;;;;21.51;51.13;100640.25;5043668;28;4786;-75
2023/06/16 12:14:34;;;;;;;;;;;;;;;21.52;51.20;100639.16;5045027;28;5269;-76
2023/06/16 12:17:00;;;;;;;;;;;;;;;21.54;51.30;100642.41;5028026;28;5756;-75
2023/06/16 12:19:27;;;;;;;;;;;;;;;21.55;51.15;100647.59;5025927;28;5468;-75
2023/06/16 12:21:54;;;;;;;;;;;;;;;21.58;51.21;100634.44;5049433;28;5389;-74
2023/06/16 12:24:21;;;;;;;;;;;;;;;21.58;51.31;100637.97;5044142;28;4831;-75
2023/06/16 12:26:47;;;;;;;;;;;;;;;21.61;51.56;100634.66;5044722;28;5493;-76
2023/06/16 12:29:14;;;;;;;;;;;;;;;21.61;51.69;100631.91;5044108;28;4953;-75
2023/06/16 12:31:40;;;;;;;;;;;;;;;21.63;51.44;100626.97;5044483;28;5525;-75
2023/06/16 12:34:07;;;;;;;;;;;;;;;21.64;51.62;100639.56;5047425;28;5469;-74
2023/06/16 12:36:33;;;;;;;;;;;;;;;21.66;51.52;100631.06;5026802;28;5436;-75
2023/06/16 12:39:00;;;;;;;;;;;;;;;21.66;51.79;100626.38;5032160;28;4684;-74
2023/06/16 12:41:27;;;;;;;;;;;;;;;21.66;51.79;100620.09;5043448;28;4885;-75
2023/06/16 12:43:53;;;;;;;;;;;;;;;21.67;52.07;100625.25;5039103;28;5384;-76
2023/06/16 12:46:20;;;;;;;;;;;;;;;21.70;52.06;100624.69;5039793;28;5539;-76
2023/06/16 12:48:46;;;;;;;;;;;;;;;21.72;51.95;100619.72;5035788;28;4690;-76
2023/06/16 12:51:13;;;;;;;;;;;;;;;21.73;52.25;100621.34;5035667;28;4427;-75